Time;durP1;ratioP1;P1;durP2;ratioP2;P2;SDS_P1;SDS_P2;PMS_P1;PMS_P2;Temp;Humidity;BMP_temperature;BMP_pressure;BME280_temperature;BME280_humidity;BME280_pressure;Samples;Min_cycle;Max_cycle;Signal;HPM_P1;HPM_P2
2022/03/03 00:00:00;;;;;;;;;;;23.60;42.80;;;;;;1544982;74;741;-70
2022/03/03 00:02:02;;;;;;;;;;;23.60;42.80;;;;;;1550428;74;1144;-70
2022/03/03 00:04:04;;;;;;;;;;;23.60;42.80;;;;;;1552919;74;717;-71
2022/03/03 00:06:06;;;;;;;;;;;23.70;43.00;;;;;;1553672;74;1080;-69
2022/03/03 00:08:08;;;;;;;;;;;23.60;42.80;;;;;;1561681;74;1931;-70
2022/03/03 00:10:10;;;;;;;;;;;23.60;42.90;;;;;;1552471;75;775;-70
2022/03/03 00:12:12;;;;;;;;;;;23.60;42.80;;;;;;1548201;74;669;-70
2022/03/03 00:14:14;;;;;;;;;;;23.60;42.90;;;;;;1552881;74;728;-70
2022/03/03 00:16:15;;;;;;;;;;;23.60;42.90;;;;;;1568350;74;799;-69
2022/03/03 00:18:17;;;;;;;;;;;23.60;42.80;;;;;;1548139;75;770;-68
2022/03/03 00:20:19;;;;;;;;;;;23.60;42.90;;;;;;1547599;74;1173;-69
2022/03/03 00:22:21;;;;;;;;;;;23.60;42.90;;;;;;1554654;75;717;-69
2022/03/03 00:24:23;;;;;;;;;;;23.60;43.00;;;;;;1553518;74;710;-69
2022/03/03 00:26:25;;;;;;;;;;;23.60;43.00;;;;;;1552585;74;701;-69
2022/03/03 00:28:27;;;;;;;;;;;23.60;42.90;;;;;;1552902;74;2060;-70
2022/03/03 00:30:29;;;;;;;;;;;23.70;43.10;;;;;;1555688;74;1077;-70
2022/03/03 00:32:31;;;;;;;;;;;23.60;43.00;;;;;;1556371;74;717;-68
2022/03/03 00:34:33;;;;;;;;;;;23.70;43.20;;;;;;1553626;74;705;-68
2022/03/03 00:36:34;;;;;;;;;;;23.60;43.10;;;;;;1555455;74;780;-68
2022/03/03 00:38:36;;;;;;;;;;;23.70;43.20;;;;;;1560752;74;791;-67
2022/03/03 00:40:38;;;;;;;;;;;23.60;43.10;;;;;;1535493;74;1169;-69
2022/03/03 00:42:40;;;;;;;;;;;23.70;43.30;;;;;;1544944;75;754;-68
2022/03/03 00:44:42;;;;;;;;;;;23.60;43.10;;;;;;1557172;74;864;-69
2022/03/03 00:46:44;;;;;;;;;;;23.60;43.20;;;;;;1555354;74;798;-70
2022/03/03 00:48:46;;;;;;;;;;;23.60;43.20;;;;;;1555771;74;1939;-69
2022/03/03 00:50:47;;;;;;;;;;;23.60;43.10;;;;;;1545397;75;1172;-69
2022/03/03 00:52:49;;;;;;;;;;;23.70;43.40;;;;;;1572050;75;731;-69
2022/03/03 00:54:51;;;;;;;;;;;23.60;43.20;;;;;;1555104;75;701;-69
2022/03/03 00:56:53;;;;;;;;;;;23.70;43.40;;;;;;1553339;75;775;-68
2022/03/03 00:58:55;;;;;;;;;;;23.60;43.30;;;;;;1554976;75;780;-68
2022/03/03 01:00:57;;;;;;;;;;;23.60;43.30;;;;;;1546155;74;1162;-69
2022/03/03 01:02:59;;;;;;;;;;;23.60;43.30;;;;;;1547130;74;712;-71
2022/03/03 01:05:01;;;;;;;;;;;23.60;43.30;;;;;;1552829;75;692;-70
2022/03/03 01:07:02;;;;;;;;;;;23.60;43.30;;;;;;1558510;74;729;-73
2022/03/03 01:09:04;;;;;;;;;;;23.60;43.40;;;;;;1566582;74;1926;-70
2022/03/03 01:11:07;;;;;;;;;;;23.60;43.30;;;;;;1565778;74;1142;-72
2022/03/03 01:13:09;;;;;;;;;;;23.70;43.40;;;;;;1570396;74;738;-69
2022/03/03 01:15:11;;;;;;;;;;;23.60;43.30;;;;;;1569149;74;691;-70
2022/03/03 01:17:13;;;;;;;;;;;23.60;43.40;;;;;;1566965;74;690;-69
2022/03/03 01:19:15;;;;;;;;;;;23.60;43.30;;;;;;1565728;74;722;-70
2022/03/03 01:21:17;;;;;;;;;;;23.60;43.40;;;;;;1579738;73;1151;-69
2022/03/03 01:23:19;;;;;;;;;;;23.70;43.40;;;;;;1574771;74;719;-69
2022/03/03 01:25:21;;;;;;;;;;;23.60;43.30;;;;;;1574479;74;792;-69
2022/03/03 01:27:22;;;;;;;;;;;23.70;43.40;;;;;;1574037;74;684;-69
2022/03/03 01:29:24;;;;;;;;;;;23.70;43.50;;;;;;1572178;74;1946;-71
2022/03/03 01:31:26;;;;;;;;;;;23.60;43.40;;;;;;1570562;74;1145;-71
2022/03/03 01:33:28;;;;;;;;;;;23.60;43.40;;;;;;1570318;74;674;-68
2022/03/03 01:35:30;;;;;;;;;;;23.60;43.40;;;;;;1569656;74;707;-68
2022/03/03 01:37:32;;;;;;;;;;;23.60;43.40;;;;;;1571299;74;695;-70
2022/03/03 01:39:34;;;;;;;;;;;23.60;43.40;;;;;;1573742;74;699;-70
2022/03/03 01:41:36;;;;;;;;;;;23.60;43.40;;;;;;1574550;74;1066;-70
2022/03/03 01:43:38;;;;;;;;;;;23.60;43.50;;;;;;1569957;74;684;-71
2022/03/03 01:45:40;;;;;;;;;;;23.70;43.60;;;;;;1581384;74;692;-70
2022/03/03 01:47:42;;;;;;;;;;;23.60;43.50;;;;;;1568526;74;689;-71
2022/03/03 01:49:44;;;;;;;;;;;23.60;43.40;;;;;;1569729;74;1936;-70
2022/03/03 01:51:46;;;;;;;;;;;23.60;43.40;;;;;;1569786;74;1160;-70
2022/03/03 01:53:48;;;;;;;;;;;23.60;43.40;;;;;;1565953;74;711;-66
2022/03/03 01:55:50;;;;;;;;;;;23.60;43.40;;;;;;1570001;74;777;-68
2022/03/03 01:57:52;;;;;;;;;;;23.60;43.50;;;;;;1571184;74;717;-69
2022/03/03 01:59:54;;;;;;;;;;;23.60;43.40;;;;;;1567091;74;707;-70
2022/03/03 02:01:56;;;;;;;;;;;23.60;43.40;;;;;;1569741;74;1180;-70
2022/03/03 02:03:58;;;;;;;;;;;23.70;43.50;;;;;;1574069;74;713;-69
2022/03/03 02:06:00;;;;;;;;;;;23.60;43.40;;;;;;1574111;74;670;-69
2022/03/03 02:08:02;;;;;;;;;;;23.70;43.60;;;;;;1568749;74;724;-66
2022/03/03 02:10:04;;;;;;;;;;;23.60;43.40;;;;;;1569868;75;1935;-69
2022/03/03 02:12:06;;;;;;;;;;;23.60;43.40;;;;;;1568744;74;1076;-69
2022/03/03 02:14:08;;;;;;;;;;;23.70;43.50;;;;;;1568909;74;698;-69
2022/03/03 02:16:10;;;;;;;;;;;23.60;43.40;;;;;;1569229;75;771;-69
2022/03/03 02:18:12;;;;;;;;;;;23.60;43.50;;;;;;1569027;74;687;-69
2022/03/03 02:20:22;;;;;;;;;;;23.60;43.40;;;;;;1575263;74;1148;-69
2022/03/03 02:22:24;;;;;;;;;;;23.60;43.40;;;;;;1569809;74;813;-69
2022/03/03 02:24:25;;;;;;;;;;;23.70;43.50;;;;;;1569367;75;682;-72
2022/03/03 02:26:27;;;;;;;;;;;23.60;43.40;;;;;;1574242;74;743;-66
2022/03/03 02:28:29;;;;;;;;;;;23.60;43.40;;;;;;1569534;74;701;-68
2022/03/03 02:30:31;;;;;;;;;;;23.60;43.40;;;;;;1581163;74;1944;-69
2022/03/03 02:32:33;;;;;;;;;;;23.60;43.40;;;;;;1569811;74;737;-67
2022/03/03 02:34:35;;;;;;;;;;;23.70;43.60;;;;;;1576789;74;764;-68
2022/03/03 02:36:37;;;;;;;;;;;23.60;43.40;;;;;;1572317;74;723;-68
2022/03/03 02:38:38;;;;;;;;;;;23.60;43.50;;;;;;1574221;74;765;-70
2022/03/03 02:40:40;;;;;;;;;;;23.60;43.40;;;;;;1585565;73;1161;-68
2022/03/03 02:42:42;;;;;;;;;;;23.60;43.40;;;;;;1581963;74;709;-67
2022/03/03 02:44:44;;;;;;;;;;;23.60;43.40;;;;;;1586267;74;779;-68
2022/03/03 02:46:46;;;;;;;;;;;23.60;43.40;;;;;;1572297;74;799;-66
2022/03/03 02:48:48;;;;;;;;;;;23.60;43.40;;;;;;1570535;74;1954;-69
2022/03/03 02:50:50;;;;;;;;;;;23.60;43.40;;;;;;1576645;74;1107;-69
2022/03/03 02:52:52;;;;;;;;;;;23.60;43.40;;;;;;1582977;74;692;-69
2022/03/03 02:54:54;;;;;;;;;;;23.60;43.30;;;;;;1580346;74;3101;-69
2022/03/03 02:59:16;;;;;;;;;;;23.60;43.30;;;;;;1590374;74;1585;-68
2022/03/03 03:01:18;;;;;;;;;;;23.60;43.30;;;;;;1590427;74;789;-67
2022/03/03 03:03:19;;;;;;;;;;;23.60;43.40;;;;;;1590254;74;822;-66
2022/03/03 03:05:21;;;;;;;;;;;23.50;43.30;;;;;;1592082;73;1150;-68
2022/03/03 03:07:23;;;;;;;;;;;23.60;43.20;;;;;;1602021;74;740;-67
2022/03/03 03:09:25;;;;;;;;;;;23.60;43.20;;;;;;1599651;74;1976;-67
2022/03/03 03:11:27;;;;;;;;;;;23.60;43.20;;;;;;1599779;74;872;-68
2022/03/03 03:13:29;;;;;;;;;;;23.50;43.20;;;;;;1595959;74;745;-67
2022/03/03 03:15:31;;;;;;;;;;;23.50;43.20;;;;;;1602196;73;1166;-68
2022/03/03 03:17:33;;;;;;;;;;;23.60;43.20;;;;;;1604656;74;706;-67
2022/03/03 03:19:34;;;;;;;;;;;23.50;43.30;;;;;;1600461;74;730;-68
2022/03/03 03:21:36;;;;;;;;;;;23.60;43.30;;;;;;1587641;74;719;-67
2022/03/03 03:23:38;;;;;;;;;;;23.50;43.40;;;;;;1589938;74;842;-67
2022/03/03 03:25:43;;;;;;;;;;;23.60;43.40;;;;;;1581728;74;1141;-66
2022/03/03 03:27:44;;;;;;;;;;;23.50;43.40;;;;;;1596642;73;1675;-69
2022/03/03 03:29:46;;;;;;;;;;;23.60;43.40;;;;;;1600308;74;1916;-68
2022/03/03 03:31:48;;;;;;;;;;;23.60;43.50;;;;;;1596752;74;794;-69
2022/03/03 03:33:50;;;;;;;;;;;23.60;43.50;;;;;;1603204;74;756;-67
2022/03/03 03:35:51;;;;;;;;;;;23.50;43.50;;;;;;1592456;73;1138;-67
2022/03/03 03:37:53;;;;;;;;;;;23.60;43.50;;;;;;1605569;74;1040;-66
2022/03/03 03:39:56;;;;;;;;;;;23.60;43.50;;;;;;1600811;74;723;-68
2022/03/03 03:41:57;;;;;;;;;;;23.60;43.50;;;;;;1592538;74;707;-67
2022/03/03 03:43:59;;;;;;;;;;;23.60;43.50;;;;;;1592300;74;721;-67
2022/03/03 03:46:01;;;;;;;;;;;23.60;43.50;;;;;;1596915;73;1145;-67
2022/03/03 03:48:03;;;;;;;;;;;23.70;43.60;;;;;;1590043;74;661;-69
2022/03/03 03:50:08;;;;;;;;;;;23.70;43.60;;;;;;1590028;74;1929;-69
2022/03/03 03:52:09;;;;;;;;;;;23.70;43.60;;;;;;1593485;74;764;-70
2022/03/03 03:54:11;;;;;;;;;;;23.80;43.60;;;;;;1595607;73;714;-68
2022/03/03 03:56:13;;;;;;;;;;;23.80;43.60;;;;;;1603048;74;1178;-70
2022/03/03 03:58:15;;;;;;;;;;;23.80;43.50;;;;;;1600576;74;779;-69
2022/03/03 04:00:17;;;;;;;;;;;23.80;43.50;;;;;;1590143;74;824;-69
2022/03/03 04:02:19;;;;;;;;;;;23.80;43.50;;;;;;1594734;74;720;-69
2022/03/03 04:04:21;;;;;;;;;;;23.90;43.60;;;;;;1602902;74;785;-69
2022/03/03 04:06:23;;;;;;;;;;;23.90;43.50;;;;;;1590377;73;1184;-69
2022/03/03 04:08:24;;;;;;;;;;;23.90;43.40;;;;;;1594846;74;764;-69
2022/03/03 04:10:28;;;;;;;;;;;24.10;43.40;;;;;;1588028;74;1957;-67
2022/03/03 04:12:30;;;;;;;;;;;23.90;43.40;;;;;;1598441;74;707;-68
2022/03/03 04:14:32;;;;;;;;;;;24.00;43.60;;;;;;1598789;74;780;-67
2022/03/03 04:16:33;;;;;;;;;;;24.00;43.60;;;;;;1604417;73;1066;-68
2022/03/03 04:18:35;;;;;;;;;;;24.00;43.60;;;;;;1600618;74;731;-69
2022/03/03 04:20:37;;;;;;;;;;;24.10;43.70;;;;;;1598802;74;697;-68
2022/03/03 04:22:39;;;;;;;;;;;24.10;43.60;;;;;;1604494;74;766;-68
2022/03/03 04:24:41;;;;;;;;;;;24.10;43.60;;;;;;1596780;73;1177;-67
2022/03/03 04:26:43;;;;;;;;;;;24.10;43.60;;;;;;1601528;74;796;-67
2022/03/03 04:28:45;;;;;;;;;;;24.20;43.50;;;;;;1598061;74;805;-67
2022/03/03 04:30:48;;;;;;;;;;;24.20;43.50;;;;;;1600239;74;1936;-67
2022/03/03 04:32:50;;;;;;;;;;;24.10;43.50;;;;;;1598790;74;780;-68
2022/03/03 04:34:52;;;;;;;;;;;24.20;43.50;;;;;;1602294;73;1145;-68
2022/03/03 04:36:54;;;;;;;;;;;24.20;43.50;;;;;;1601883;74;691;-68
2022/03/03 04:38:56;;;;;;;;;;;24.20;43.50;;;;;;1595765;74;778;-67
2022/03/03 04:40:58;;;;;;;;;;;24.20;43.50;;;;;;1603238;74;755;-68
2022/03/03 04:43:00;;;;;;;;;;;24.20;43.50;;;;;;1603085;74;822;-67
2022/03/03 04:45:02;;;;;;;;;;;24.20;43.50;;;;;;1600511;74;1129;-67
2022/03/03 04:47:04;;;;;;;;;;;24.20;43.50;;;;;;1593755;74;797;-67
2022/03/03 04:49:07;;;;;;;;;;;24.20;43.40;;;;;;1604508;74;783;-68
2022/03/03 04:51:09;;;;;;;;;;;24.20;43.40;;;;;;1596944;74;1918;-68
2022/03/03 04:53:11;;;;;;;;;;;24.20;43.40;;;;;;1600067;74;781;-67
2022/03/03 04:55:13;;;;;;;;;;;24.20;43.40;;;;;;1604366;73;1151;-68
2022/03/03 04:57:15;;;;;;;;;;;24.20;43.40;;;;;;1604494;74;807;-69
2022/03/03 04:59:17;;;;;;;;;;;24.20;43.40;;;;;;1598018;74;586;-68
2022/03/03 05:01:18;;;;;;;;;;;24.20;43.50;;;;;;1602308;74;754;-69
2022/03/03 05:03:20;;;;;;;;;;;24.20;43.50;;;;;;1597415;74;730;-68
2022/03/03 05:05:22;;;;;;;;;;;24.20;43.50;;;;;;1581654;74;1151;-68
2022/03/03 05:07:24;;;;;;;;;;;24.20;43.40;;;;;;1594627;74;734;-68
2022/03/03 05:09:26;;;;;;;;;;;24.30;43.50;;;;;;1602613;74;741;-68
2022/03/03 05:11:28;;;;;;;;;;;24.30;43.50;;;;;;1601424;74;1949;-68
2022/03/03 05:13:30;;;;;;;;;;;24.20;43.50;;;;;;1604429;74;786;-69
2022/03/03 05:15:32;;;;;;;;;;;24.20;43.50;;;;;;1599702;73;1185;-69
2022/03/03 05:17:34;;;;;;;;;;;24.20;43.50;;;;;;1599624;74;765;-68
2022/03/03 05:19:36;;;;;;;;;;;24.20;43.60;;;;;;1597364;74;914;-68
2022/03/03 05:21:38;;;;;;;;;;;24.20;43.50;;;;;;1595683;74;756;-68
2022/03/03 05:23:40;;;;;;;;;;;24.20;43.50;;;;;;1597464;74;745;-66
2022/03/03 05:25:41;;;;;;;;;;;24.20;43.60;;;;;;1603189;74;1105;-68
2022/03/03 05:27:43;;;;;;;;;;;24.30;43.70;;;;;;1600221;74;758;-67
2022/03/03 05:29:45;;;;;;;;;;;24.30;43.70;;;;;;1596784;74;1932;-68
2022/03/03 05:31:47;;;;;;;;;;;24.20;43.60;;;;;;1598933;74;765;-68
2022/03/03 05:33:49;;;;;;;;;;;24.30;43.60;;;;;;1602517;74;795;-68
2022/03/03 05:35:52;;;;;;;;;;;24.30;43.60;;;;;;1597996;74;1266;-66
2022/03/03 05:37:54;;;;;;;;;;;24.20;43.50;;;;;;1601135;74;755;-66
2022/03/03 05:39:57;;;;;;;;;;;24.30;43.70;;;;;;1596895;74;671;-67
2022/03/03 05:41:59;;;;;;;;;;;24.20;43.60;;;;;;1602325;74;711;-67
2022/03/03 05:44:01;;;;;;;;;;;24.20;43.60;;;;;;1602772;74;785;-67
2022/03/03 05:46:02;;;;;;;;;;;24.30;43.70;;;;;;1596395;74;1154;-67
2022/03/03 05:48:05;;;;;;;;;;;24.20;43.60;;;;;;1598392;74;780;-68
2022/03/03 05:50:07;;;;;;;;;;;24.20;43.60;;;;;;1598138;74;1930;-67
2022/03/03 05:52:09;;;;;;;;;;;24.30;43.70;;;;;;1599878;74;776;-68
2022/03/03 05:54:11;;;;;;;;;;;24.20;43.60;;;;;;1597942;74;777;-69
2022/03/03 05:56:14;;;;;;;;;;;24.30;43.70;;;;;;1598758;74;1121;-67
2022/03/03 05:58:17;;;;;;;;;;;24.30;43.80;;;;;;1601172;74;882;-66
2022/03/03 06:00:19;;;;;;;;;;;24.30;43.70;;;;;;1590900;74;719;-68
2022/03/03 06:02:21;;;;;;;;;;;24.30;43.70;;;;;;1602816;74;800;-68
2022/03/03 06:04:23;;;;;;;;;;;24.20;43.60;;;;;;1597565;74;721;-67
2022/03/03 06:06:26;;;;;;;;;;;24.30;43.80;;;;;;1595787;73;1125;-68
2022/03/03 06:08:30;;;;;;;;;;;24.30;43.90;;;;;;1594778;74;734;-67
2022/03/03 06:10:32;;;;;;;;;;;24.30;43.80;;;;;;1598655;74;1950;-68
2022/03/03 06:12:54;;;;;;;;;;;24.20;43.70;;;;;;1600658;74;715;-67
2022/03/03 06:14:54;;;;;;;;;;;24.30;43.70;;;;;;1596975;73;1615;-66
2022/03/03 06:16:56;;;;;;;;;;;24.20;43.60;;;;;;1600034;74;903;-67
2022/03/03 06:18:58;;;;;;;;;;;24.30;43.80;;;;;;1594551;74;715;-68
2022/03/03 06:21:00;;;;;;;;;;;24.20;43.70;;;;;;1594796;74;806;-67
2022/03/03 06:23:02;;;;;;;;;;;24.20;43.60;;;;;;1592257;73;711;-66
2022/03/03 06:25:05;;;;;;;;;;;24.30;43.70;;;;;;1595457;73;1144;-66
2022/03/03 06:27:07;;;;;;;;;;;24.30;43.90;;;;;;1592274;74;717;-65
2022/03/03 06:29:09;;;;;;;;;;;24.30;43.60;;;;;;1588579;74;760;-65
2022/03/03 06:31:11;;;;;;;;;;;24.40;43.20;;;;;;1591207;74;1941;-65
2022/03/03 06:33:13;;;;;;;;;;;24.50;43.20;;;;;;1592137;74;807;-66
2022/03/03 06:35:16;;;;;;;;;;;24.50;43.00;;;;;;1592254;74;1144;-66
2022/03/03 06:37:18;;;;;;;;;;;24.50;42.80;;;;;;1591712;74;750;-65
2022/03/03 06:39:19;;;;;;;;;;;24.50;42.80;;;;;;1593959;74;777;-67
2022/03/03 06:41:23;;;;;;;;;;;24.50;42.70;;;;;;1596908;74;711;-65
2022/03/03 06:43:29;;;;;;;;;;;24.50;42.80;;;;;;1593442;74;1973;-65
2022/03/03 06:45:29;;;;;;;;;;;24.50;42.80;;;;;;1594498;73;1672;-66
2022/03/03 06:47:31;;;;;;;;;;;24.50;42.80;;;;;;1598946;74;885;-66
2022/03/03 06:49:33;;;;;;;;;;;24.50;42.80;;;;;;1596146;74;709;-65
2022/03/03 06:51:46;;;;;;;;;;;24.50;42.70;;;;;;1599424;74;1941;-64
2022/03/03 06:53:48;;;;;;;;;;;24.50;42.70;;;;;;1591050;74;1094;-65
2022/03/03 06:55:50;;;;;;;;;;;24.50;42.70;;;;;;1590287;73;1086;-65
2022/03/03 06:57:56;;;;;;;;;;;24.50;42.70;;;;;;1591963;74;825;-65
2022/03/03 07:00:00;;;;;;;;;;;24.50;42.70;;;;;;1589454;74;834;-66
2022/03/03 07:02:02;;;;;;;;;;;24.50;42.70;;;;;;1592299;74;703;-68
2022/03/03 07:04:04;;;;;;;;;;;24.50;42.80;;;;;;1594631;74;863;-66
2022/03/03 07:06:06;;;;;;;;;;;24.50;42.70;;;;;;1598029;73;1122;-66
2022/03/03 07:08:08;;;;;;;;;;;24.50;42.60;;;;;;1588619;74;816;-66
2022/03/03 07:10:10;;;;;;;;;;;24.50;42.60;;;;;;1602292;74;706;-67
2022/03/03 07:12:13;;;;;;;;;;;24.50;42.50;;;;;;1605201;74;1940;-66
2022/03/03 07:14:15;;;;;;;;;;;24.50;42.50;;;;;;1599582;74;747;-68
2022/03/03 07:16:24;;;;;;;;;;;24.50;42.40;;;;;;1593477;73;1149;-65
2022/03/03 07:18:27;;;;;;;;;;;24.40;42.30;;;;;;1559572;75;715;-67
2022/03/03 07:20:43;;;;;;;;;;;24.30;42.30;;;;;;1595847;74;1108;-63
2022/03/03 07:22:49;;;;;;;;;;;24.30;42.30;;;;;;1580029;74;1909;-65
2022/03/03 07:25:09;;;;;;;;;;;24.40;42.30;;;;;;1570591;73;1110;-65
2022/03/03 07:27:19;;;;;;;;;;;24.40;42.30;;;;;;1600458;74;833;-65
2022/03/03 07:29:21;;;;;;;;;;;24.30;42.30;;;;;;1586585;74;1868;-66
2022/03/03 07:31:23;;;;;;;;;;;24.30;42.30;;;;;;1593472;74;1945;-65
2022/03/03 07:33:30;;;;;;;;;;;24.30;42.40;;;;;;1603704;74;669;-64
2022/03/03 07:35:32;;;;;;;;;;;24.20;42.30;;;;;;1592792;74;1129;-63
2022/03/03 07:37:37;;;;;;;;;;;24.20;42.30;;;;;;1588525;74;725;-66
2022/03/03 07:39:40;;;;;;;;;;;24.20;42.30;;;;;;1604879;74;887;-65
2022/03/03 07:41:42;;;;;;;;;;;24.20;42.30;;;;;;1588777;74;731;-65
2022/03/03 07:43:44;;;;;;;;;;;24.20;42.30;;;;;;1605518;74;740;-65
2022/03/03 07:45:46;;;;;;;;;;;24.20;42.30;;;;;;1593803;74;1111;-64
2022/03/03 07:47:51;;;;;;;;;;;24.20;42.30;;;;;;1599084;73;769;-65
2022/03/03 07:49:53;;;;;;;;;;;24.20;42.30;;;;;;1593282;74;763;-66
2022/03/03 07:51:55;;;;;;;;;;;24.30;42.30;;;;;;1605916;74;1929;-65
2022/03/03 07:53:57;;;;;;;;;;;24.30;42.30;;;;;;1601572;74;843;-64
2022/03/03 07:56:00;;;;;;;;;;;24.30;42.20;;;;;;1601727;73;1141;-65
2022/03/03 07:58:03;;;;;;;;;;;24.30;42.20;;;;;;1586219;74;782;-65
2022/03/03 08:00:06;;;;;;;;;;;24.30;42.10;;;;;;1585836;74;690;-65
2022/03/03 08:02:08;;;;;;;;;;;24.30;42.10;;;;;;1598780;74;697;-65
2022/03/03 08:04:11;;;;;;;;;;;24.30;42.10;;;;;;1593745;74;703;-65
2022/03/03 08:06:14;;;;;;;;;;;24.30;42.00;;;;;;1591509;73;1161;-65
2022/03/03 08:08:16;;;;;;;;;;;24.30;42.00;;;;;;1602366;73;808;-65
2022/03/03 08:10:18;;;;;;;;;;;24.30;42.00;;;;;;1600655;74;793;-63
2022/03/03 08:12:20;;;;;;;;;;;24.30;41.90;;;;;;1596090;74;1937;-66
2022/03/03 08:14:22;;;;;;;;;;;24.30;41.90;;;;;;1592417;74;743;-66
2022/03/03 08:16:24;;;;;;;;;;;24.30;41.90;;;;;;1596157;73;1141;-65
2022/03/03 08:18:30;;;;;;;;;;;24.30;41.80;;;;;;1599250;74;1350;-65
2022/03/03 08:20:33;;;;;;;;;;;24.30;41.80;;;;;;1598468;74;699;-65
2022/03/03 08:22:36;;;;;;;;;;;24.30;41.80;;;;;;1599055;74;828;-65
2022/03/03 08:24:42;;;;;;;;;;;24.40;41.80;;;;;;1599305;74;763;-65
2022/03/03 08:26:42;;;;;;;;;;;24.30;41.80;;;;;;1597600;74;1692;-66
2022/03/03 08:28:44;;;;;;;;;;;24.40;41.80;;;;;;1596390;73;769;-64
2022/03/03 08:30:47;;;;;;;;;;;24.30;41.80;;;;;;1598897;74;1937;-65
2022/03/03 08:32:50;;;;;;;;;;;24.30;41.80;;;;;;1600121;74;773;-65
2022/03/03 08:35:04;;;;;;;;;;;24.30;41.70;;;;;;1597982;73;1124;-65
2022/03/03 08:37:09;;;;;;;;;;;24.40;41.80;;;;;;1589759;74;822;-65
2022/03/03 08:39:10;;;;;;;;;;;24.30;41.70;;;;;;1601304;74;967;-65
2022/03/03 08:41:12;;;;;;;;;;;24.30;41.80;;;;;;1601186;74;790;-66
2022/03/03 08:43:14;;;;;;;;;;;24.30;41.80;;;;;;1566598;75;808;-64
2022/03/03 08:45:17;;;;;;;;;;;24.30;41.80;;;;;;1587129;73;1142;-66
2022/03/03 08:47:20;;;;;;;;;;;24.30;41.80;;;;;;1588831;74;826;-65
2022/03/03 08:49:22;;;;;;;;;;;24.30;41.80;;;;;;1585372;74;778;-64
2022/03/03 08:51:24;;;;;;;;;;;24.30;41.80;;;;;;1586368;74;1942;-66
2022/03/03 08:53:26;;;;;;;;;;;24.30;41.80;;;;;;1589493;74;752;-65
2022/03/03 08:55:28;;;;;;;;;;;24.30;41.70;;;;;;1588381;73;2104;-66
2022/03/03 08:57:30;;;;;;;;;;;24.30;41.80;;;;;;1577200;75;707;-67
2022/03/03 08:59:33;;;;;;;;;;;24.30;41.60;;;;;;1578938;74;799;-67
2022/03/03 09:01:34;;;;;;;;;;;24.30;41.50;;;;;;1570279;75;777;-67
2022/03/03 09:03:38;;;;;;;;;;;24.30;41.10;;;;;;1570801;75;724;-69
2022/03/03 09:05:39;;;;;;;;;;;24.20;40.70;;;;;;1587122;73;1208;-71
2022/03/03 09:07:41;;;;;;;;;;;24.20;40.70;;;;;;1594799;73;799;-70
2022/03/03 09:09:43;;;;;;;;;;;24.20;40.80;;;;;;1603193;73;707;-68
2022/03/03 09:11:45;;;;;;;;;;;24.20;40.50;;;;;;1569978;73;1934;-68
2022/03/03 09:13:47;;;;;;;;;;;24.20;40.40;;;;;;1584608;73;731;-70
2022/03/03 09:15:49;;;;;;;;;;;24.10;40.20;;;;;;1588198;73;1384;-68
2022/03/03 09:17:51;;;;;;;;;;;24.20;40.30;;;;;;1592386;73;722;-68
2022/03/03 09:19:52;;;;;;;;;;;24.20;40.20;;;;;;1588288;73;713;-69
2022/03/03 09:21:55;;;;;;;;;;;24.20;40.20;;;;;;1580781;73;783;-73
2022/03/03 09:23:56;;;;;;;;;;;24.20;39.90;;;;;;1584398;73;733;-70
2022/03/03 09:25:58;;;;;;;;;;;24.20;39.70;;;;;;1596713;72;1112;-68
2022/03/03 09:28:00;;;;;;;;;;;24.10;39.30;;;;;;1573318;74;726;-71
2022/03/03 09:30:03;;;;;;;;;;;24.10;39.40;;;;;;1576368;75;703;-69
2022/03/03 09:32:06;;;;;;;;;;;24.10;39.10;;;;;;1582995;74;1925;-69
2022/03/03 09:34:07;;;;;;;;;;;24.00;38.70;;;;;;1567663;74;731;-68
2022/03/03 09:36:09;;;;;;;;;;;24.10;38.50;;;;;;1582757;73;1139;-71
2022/03/03 09:38:11;;;;;;;;;;;24.20;38.90;;;;;;1573813;74;753;-68
2022/03/03 09:40:13;;;;;;;;;;;24.20;38.80;;;;;;1580205;74;703;-66
2022/03/03 09:42:15;;;;;;;;;;;24.10;38.80;;;;;;1570299;74;718;-68
2022/03/03 09:44:21;;;;;;;;;;;24.20;38.50;;;;;;1576409;75;717;-69
2022/03/03 09:46:23;;;;;;;;;;;24.10;38.60;;;;;;1544984;76;1152;-69
2022/03/03 09:48:25;;;;;;;;;;;24.20;38.30;;;;;;1535871;76;679;-69
2022/03/03 09:50:27;;;;;;;;;;;24.20;38.30;;;;;;1578906;74;786;-75
2022/03/03 09:52:30;;;;;;;;;;;24.20;38.40;;;;;;1585982;74;1900;-73
2022/03/03 09:54:32;;;;;;;;;;;24.20;38.10;;;;;;1586420;74;776;-72
2022/03/03 09:56:34;;;;;;;;;;;24.30;38.00;;;;;;1563189;74;1144;-72
2022/03/03 09:58:36;;;;;;;;;;;24.20;38.00;;;;;;1576066;74;694;-72
2022/03/03 10:00:40;;;;;;;;;;;24.20;37.60;;;;;;1565887;74;717;-70
2022/03/03 10:02:57;;;;;;;;;;;24.20;37.60;;;;;;1582938;74;1185;-72
2022/03/03 10:04:59;;;;;;;;;;;24.20;35.30;;;;;;1590971;74;792;-71
2022/03/03 10:07:05;;;;;;;;;;;24.30;34.20;;;;;;1584592;73;1186;-72
2022/03/03 10:09:06;;;;;;;;;;;24.20;34.90;;;;;;1580231;74;704;-72
2022/03/03 10:11:09;;;;;;;;;;;24.10;34.30;;;;;;1582340;74;696;-70
2022/03/03 10:13:14;;;;;;;;;;;24.20;35.30;;;;;;1567122;74;1915;-72
2022/03/03 10:15:15;;;;;;;;;;;24.20;35.90;;;;;;1583393;74;1182;-71
2022/03/03 10:17:17;;;;;;;;;;;24.40;36.70;;;;;;1578697;74;734;-71
2022/03/03 10:19:19;;;;;;;;;;;24.40;36.80;;;;;;1571672;75;703;-75
2022/03/03 10:21:21;;;;;;;;;;;24.40;36.70;;;;;;1546145;75;732;-70
2022/03/03 10:23:33;;;;;;;;;;;24.50;36.60;;;;;;1540831;76;1295;-71
2022/03/03 10:25:35;;;;;;;;;;;24.40;35.30;;;;;;1532701;76;1122;-69
2022/03/03 10:27:37;;;;;;;;;;;24.30;35.50;;;;;;1530920;76;739;-72
2022/03/03 10:29:39;;;;;;;;;;;24.30;35.30;;;;;;1533598;76;703;-71
2022/03/03 10:31:47;;;;;;;;;;;24.30;34.80;;;;;;1536980;75;1952;-72
2022/03/03 10:33:49;;;;;;;;;;;24.20;29.40;;;;;;1532258;76;750;-71
2022/03/03 10:35:58;;;;;;;;;;;24.00;31.60;;;;;;1556560;74;1140;-72
2022/03/03 10:38:01;;;;;;;;;;;23.90;29.70;;;;;;1550729;76;730;-71
2022/03/03 10:40:03;;;;;;;;;;;23.70;28.30;;;;;;1559324;76;1138;-72
2022/03/03 10:42:07;;;;;;;;;;;23.50;30.70;;;;;;1539712;76;785;-70
2022/03/03 10:44:09;;;;;;;;;;;23.50;30.00;;;;;;1571823;75;1107;-71
2022/03/03 10:46:11;;;;;;;;;;;23.40;26.30;;;;;;1556031;74;1139;-70
2022/03/03 10:48:15;;;;;;;;;;;23.40;29.50;;;;;;1561372;74;785;-71
2022/03/03 10:50:16;;;;;;;;;;;23.40;30.30;;;;;;1536311;76;987;-71
2022/03/03 10:52:19;;;;;;;;;;;23.40;29.60;;;;;;1536092;76;1935;-71
2022/03/03 10:54:21;;;;;;;;;;;23.30;30.30;;;;;;1540746;76;671;-70
2022/03/03 10:56:23;;;;;;;;;;;23.20;27.20;;;;;;1539925;76;1145;-71
2022/03/03 10:58:26;;;;;;;;;;;23.30;29.50;;;;;;1538406;76;771;-70
2022/03/03 11:00:29;;;;;;;;;;;23.20;28.60;;;;;;1531700;76;1119;-71
2022/03/03 11:02:31;;;;;;;;;;;23.20;27.60;;;;;;1528373;76;805;-71
2022/03/03 11:04:32;;;;;;;;;;;23.10;28.20;;;;;;1561448;74;770;-72
2022/03/03 11:06:34;;;;;;;;;;;23.10;29.20;;;;;;1559145;76;1213;-71
2022/03/03 11:08:36;;;;;;;;;;;23.10;28.90;;;;;;1537692;76;667;-70
2022/03/03 11:10:38;;;;;;;;;;;23.10;28.60;;;;;;1537233;77;717;-70
2022/03/03 11:12:40;;;;;;;;;;;23.10;28.60;;;;;;1525670;77;1934;-69
2022/03/03 11:14:43;;;;;;;;;;;23.00;28.40;;;;;;1542887;75;768;-70
2022/03/03 11:16:45;;;;;;;;;;;23.00;28.70;;;;;;1538750;75;1213;-69
2022/03/03 11:18:47;;;;;;;;;;;23.00;29.20;;;;;;1579792;74;730;-70
2022/03/03 11:20:49;;;;;;;;;;;23.10;29.60;;;;;;1579983;74;792;-70
2022/03/03 11:22:54;;;;;;;;;;;23.00;29.60;;;;;;1581295;74;725;-70
2022/03/03 11:25:00;;;;;;;;;;;23.10;29.90;;;;;;1581964;74;767;-72
2022/03/03 11:27:02;;;;;;;;;;;23.00;29.70;;;;;;1541165;76;1005;-71
2022/03/03 11:29:11;;;;;;;;;;;23.00;29.50;;;;;;1575816;74;733;-71
2022/03/03 11:31:25;;;;;;;;;;;23.00;29.80;;;;;;1586796;74;714;-68
2022/03/03 11:33:41;;;;;;;;;;;23.00;30.00;;;;;;1578641;74;1952;-70
2022/03/03 11:35:44;;;;;;;;;;;23.00;30.10;;;;;;1579874;74;1562;-69
2022/03/03 11:37:46;;;;;;;;;;;23.00;30.40;;;;;;1546070;74;937;-69
2022/03/03 11:39:49;;;;;;;;;;;23.00;30.40;;;;;;1586961;74;725;-69
2022/03/03 11:41:51;;;;;;;;;;;23.00;30.50;;;;;;1573012;74;707;-69
2022/03/03 11:44:00;;;;;;;;;;;23.00;30.40;;;;;;1565452;74;649;-69
2022/03/03 11:46:02;;;;;;;;;;;23.00;30.70;;;;;;1568565;74;1150;-68
2022/03/03 11:48:11;;;;;;;;;;;23.00;30.70;;;;;;1582972;74;693;-68
2022/03/03 11:50:17;;;;;;;;;;;23.00;30.80;;;;;;1569923;74;721;-69
2022/03/03 11:52:19;;;;;;;;;;;23.00;30.80;;;;;;1573029;74;1907;-69
2022/03/03 11:54:26;;;;;;;;;;;23.00;30.10;;;;;;1563357;75;752;-69
2022/03/03 11:56:28;;;;;;;;;;;22.90;29.10;;;;;;1583077;73;1706;-70
2022/03/03 11:58:35;;;;;;;;;;;23.00;27.80;;;;;;1587846;74;832;-70
2022/03/03 12:00:36;;;;;;;;;;;22.90;28.50;;;;;;1585229;74;795;-69
2022/03/03 12:02:40;;;;;;;;;;;22.90;28.70;;;;;;1572772;74;1528;-69
2022/03/03 12:04:42;;;;;;;;;;;22.90;28.40;;;;;;1585574;74;1158;-70
2022/03/03 12:06:45;;;;;;;;;;;22.80;28.40;;;;;;1565751;74;1192;-68
2022/03/03 12:08:47;;;;;;;;;;;22.80;28.10;;;;;;1573028;74;708;-67
2022/03/03 12:11:05;;;;;;;;;;;22.80;28.60;;;;;;1558958;74;774;-68
2022/03/03 12:13:24;;;;;;;;;;;22.80;29.00;;;;;;1559310;74;1942;-70